sensor_id;sensor_type;location;lat;lon;timestamp;temperature;humidity
23729;DHT22;12045;60.214;24.724;2023-03-14T00:02:27;3.80;99.90
23729;DHT22;12045;60.214;24.724;2023-03-14T00:04:55;4.30;99.90
23729;DHT22;12045;60.214;24.724;2023-03-14T00:07:23;3.90;99.90
23729;DHT22;12045;60.214;24.724;2023-03-14T00:09:52;3.90;99.90
23729;DHT22;12045;60.214;24.724;2023-03-14T00:12:19;3.50;99.90
23729;DHT22;12045;60.214;24.724;2023-03-14T00:14:47;1.80;99.90
23729;DHT22;12045;60.214;24.724;2023-03-14T00:17:14;2.80;99.90
23729;DHT22;12045;60.214;24.724;2023-03-14T00:30:25;1.90;99.90
23729;DHT22;12045;60.214;24.724;2023-03-14T00:36:14;2.00;99.90
23729;DHT22;12045;60.214;24.724;2023-03-14T00:41:40;2.10;99.90
23729;DHT22;12045;60.214;24.724;2023-03-14T00:44:10;3.70;99.90
23729;DHT22;12045;60.214;24.724;2023-03-14T00:46:47;2.10;99.90
23729;DHT22;12045;60.214;24.724;2023-03-14T00:49:15;2.40;99.90
23729;DHT22;12045;60.214;24.724;2023-03-14T00:51:43;2.30;99.90
23729;DHT22;12045;60.214;24.724;2023-03-14T00:54:10;2.30;99.90
23729;DHT22;12045;60.214;24.724;2023-03-14T00:56:38;2.80;99.90
23729;DHT22;12045;60.214;24.724;2023-03-14T00:59:05;4.00;99.90
23729;DHT22;12045;60.214;24.724;2023-03-14T01:01:33;2.40;99.90
23729;DHT22;12045;60.214;24.724;2023-03-14T01:04:00;2.50;99.90
23729;DHT22;12045;60.214;24.724;2023-03-14T01:06:29;4.20;99.90
23729;DHT22;12045;60.214;24.724;2023-03-14T01:08:58;2.70;99.90
23729;DHT22;12045;60.214;24.724;2023-03-14T01:11:32;3.50;99.90
23729;DHT22;12045;60.214;24.724;2023-03-14T01:14:00;2.80;99.90
23729;DHT22;12045;60.214;24.724;2023-03-14T01:16:30;2.80;99.90
23729;DHT22;12045;60.214;24.724;2023-03-14T01:18:57;2.80;99.90
23729;DHT22;12045;60.214;24.724;2023-03-14T01:21:31;3.90;99.90
23729;DHT22;12045;60.214;24.724;2023-03-14T01:24:02;2.90;99.90
23729;DHT22;12045;60.214;24.724;2023-03-14T01:26:32;3.30;99.90
23729;DHT22;12045;60.214;24.724;2023-03-14T01:29:01;4.40;99.90
23729;DHT22;12045;60.214;24.724;2023-03-14T01:31:29;4.30;99.90
23729;DHT22;12045;60.214;24.724;2023-03-14T01:33:56;3.10;99.90
23729;DHT22;12045;60.214;24.724;2023-03-14T01:36:24;3.10;99.90
23729;DHT22;12045;60.214;24.724;2023-03-14T01:38:51;3.60;99.90
23729;DHT22;12045;60.214;24.724;2023-03-14T01:41:22;3.10;99.90
23729;DHT22;12045;60.214;24.724;2023-03-14T02:00:35;3.40;99.90
23729;DHT22;12045;60.214;24.724;2023-03-14T02:14:19;3.60;99.90
23729;DHT22;12045;60.214;24.724;2023-03-14T02:16:50;4.00;99.90
23729;DHT22;12045;60.214;24.724;2023-03-14T02:19:25;4.40;99.90
23729;DHT22;12045;60.214;24.724;2023-03-14T02:22:06;4.00;99.90
23729;DHT22;12045;60.214;24.724;2023-03-14T02:27:21;4.00;99.90
23729;DHT22;12045;60.214;24.724;2023-03-14T02:29:53;4.60;99.90
23729;DHT22;12045;60.214;24.724;2023-03-14T02:32:22;4.50;99.90
23729;DHT22;12045;60.214;24.724;2023-03-14T02:34:54;4.10;99.90
23729;DHT22;12045;60.214;24.724;2023-03-14T02:37:26;4.20;99.90
23729;DHT22;12045;60.214;24.724;2023-03-14T02:39:54;4.10;99.90
23729;DHT22;12045;60.214;24.724;2023-03-14T02:42:22;4.20;99.90
23729;DHT22;12045;60.214;24.724;2023-03-14T02:44:52;5.00;99.90
23729;DHT22;12045;60.214;24.724;2023-03-14T02:47:27;5.10;99.90
23729;DHT22;12045;60.214;24.724;2023-03-14T02:50:03;4.50;99.90
23729;DHT22;12045;60.214;24.724;2023-03-14T02:52:31;4.60;99.90
23729;DHT22;12045;60.214;24.724;2023-03-14T02:54:59;4.50;99.90
23729;DHT22;12045;60.214;24.724;2023-03-14T02:57:26;4.40;99.90
23729;DHT22;12045;60.214;24.724;2023-03-14T02:59:54;4.80;99.90
23729;DHT22;12045;60.214;24.724;2023-03-14T03:02:21;5.20;99.90
23729;DHT22;12045;60.214;24.724;2023-03-14T03:04:48;4.80;99.90
23729;DHT22;12045;60.214;24.724;2023-03-14T03:07:17;4.70;99.90
23729;DHT22;12045;60.214;24.724;2023-03-14T03:09:45;4.80;99.90
23729;DHT22;12045;60.214;24.724;2023-03-14T03:12:14;5.10;99.90
23729;DHT22;12045;60.214;24.724;2023-03-14T03:14:44;5.10;99.90
23729;DHT22;12045;60.214;24.724;2023-03-14T03:19:50;4.70;99.90
23729;DHT22;12045;60.214;24.724;2023-03-14T03:25:32;4.80;99.90
23729;DHT22;12045;60.214;24.724;2023-03-14T03:28:00;5.10;99.90
23729;DHT22;12045;60.214;24.724;2023-03-14T03:30:31;5.50;99.90
23729;DHT22;12045;60.214;24.724;2023-03-14T03:36:22;4.90;99.90
23729;DHT22;12045;60.214;24.724;2023-03-14T03:42:36;4.90;99.90
23729;DHT22;12045;60.214;24.724;2023-03-14T03:45:04;5.00;99.90
23729;DHT22;12045;60.214;24.724;2023-03-14T03:47:32;4.90;99.90
23729;DHT22;12045;60.214;24.724;2023-03-14T03:49:59;4.90;99.90
23729;DHT22;12045;60.214;24.724;2023-03-14T03:52:27;5.40;99.90
23729;DHT22;12045;60.214;24.724;2023-03-14T03:54:54;5.30;99.90
23729;DHT22;12045;60.214;24.724;2023-03-14T03:57:21;5.60;99.90
23729;DHT22;12045;60.214;24.724;2023-03-14T03:59:51;5.60;99.90
23729;DHT22;12045;60.214;24.724;2023-03-14T04:02:19;4.70;99.90
23729;DHT22;12045;60.214;24.724;2023-03-14T04:04:46;4.70;99.90
23729;DHT22;12045;60.214;24.724;2023-03-14T04:07:14;4.70;99.90
23729;DHT22;12045;60.214;24.724;2023-03-14T04:09:42;5.50;99.90
23729;DHT22;12045;60.214;24.724;2023-03-14T04:12:10;4.70;99.90
23729;DHT22;12045;60.214;24.724;2023-03-14T04:14:38;5.00;99.90
23729;DHT22;12045;60.214;24.724;2023-03-14T04:17:05;4.60;99.90
23729;DHT22;12045;60.214;24.724;2023-03-14T04:19:33;5.70;99.90
23729;DHT22;12045;60.214;24.724;2023-03-14T04:22:00;4.70;99.90
23729;DHT22;12045;60.214;24.724;2023-03-14T04:24:28;4.70;99.90
23729;DHT22;12045;60.214;24.724;2023-03-14T04:26:56;5.00;99.90
23729;DHT22;12045;60.214;24.724;2023-03-14T04:29:38;4.70;99.90
23729;DHT22;12045;60.214;24.724;2023-03-14T04:32:20;4.70;99.90
23729;DHT22;12045;60.214;24.724;2023-03-14T04:34:53;4.70;99.90
23729;DHT22;12045;60.214;24.724;2023-03-14T04:37:20;5.40;99.90
23729;DHT22;12045;60.214;24.724;2023-03-14T04:40:02;4.70;99.90
23729;DHT22;12045;60.214;24.724;2023-03-14T04:42:34;4.70;99.90
23729;DHT22;12045;60.214;24.724;2023-03-14T04:45:02;4.50;99.90
23729;DHT22;12045;60.214;24.724;2023-03-14T04:47:30;4.80;99.90
23729;DHT22;12045;60.214;24.724;2023-03-14T04:50:02;4.80;99.90
23729;DHT22;12045;60.214;24.724;2023-03-14T04:55:27;4.80;99.90
23729;DHT22;12045;60.214;24.724;2023-03-14T04:57:54;5.50;99.90
23729;DHT22;12045;60.214;24.724;2023-03-14T05:00:22;5.20;99.90
23729;DHT22;12045;60.214;24.724;2023-03-14T05:02:49;4.60;99.90
23729;DHT22;12045;60.214;24.724;2023-03-14T05:05:17;4.70;99.90
23729;DHT22;12045;60.214;24.724;2023-03-14T05:07:52;4.70;99.90
23729;DHT22;12045;60.214;24.724;2023-03-14T05:10:20;5.00;99.90
23729;DHT22;12045;60.214;24.724;2023-03-14T05:12:47;5.00;99.90
23729;DHT22;12045;60.214;24.724;2023-03-14T05:15:15;5.70;99.90
23729;DHT22;12045;60.214;24.724;2023-03-14T05:17:42;4.70;99.90
23729;DHT22;12045;60.214;24.724;2023-03-14T05:20:10;4.70;99.90
23729;DHT22;12045;60.214;24.724;2023-03-14T05:22:41;4.70;99.90
23729;DHT22;12045;60.214;24.724;2023-03-14T05:25:09;4.70;99.90
23729;DHT22;12045;60.214;24.724;2023-03-14T05:27:36;5.20;99.90
23729;DHT22;12045;60.214;24.724;2023-03-14T05:30:06;5.40;99.90
23729;DHT22;12045;60.214;24.724;2023-03-14T05:32:33;4.70;99.90
23729;DHT22;12045;60.214;24.724;2023-03-14T05:35:01;4.80;99.90
23729;DHT22;12045;60.214;24.724;2023-03-14T05:37:28;4.70;99.90
23729;DHT22;12045;60.214;24.724;2023-03-14T05:39:56;4.60;99.90
23729;DHT22;12045;60.214;24.724;2023-03-14T05:42:23;4.60;99.90
23729;DHT22;12045;60.214;24.724;2023-03-14T05:44:51;4.60;99.90
23729;DHT22;12045;60.214;24.724;2023-03-14T05:47:18;5.00;99.90
23729;DHT22;12045;60.214;24.724;2023-03-14T05:49:46;4.70;99.90
23729;DHT22;12045;60.214;24.724;2023-03-14T05:52:13;4.60;99.90
23729;DHT22;12045;60.214;24.724;2023-03-14T05:54:41;5.10;99.90
23729;DHT22;12045;60.214;24.724;2023-03-14T05:57:08;5.00;99.90
23729;DHT22;12045;60.214;24.724;2023-03-14T05:59:36;5.50;99.90
23729;DHT22;12045;60.214;24.724;2023-03-14T06:02:03;4.70;99.90
23729;DHT22;12045;60.214;24.724;2023-03-14T06:04:31;4.80;99.90
23729;DHT22;12045;60.214;24.724;2023-03-14T06:06:59;4.90;99.90
23729;DHT22;12045;60.214;24.724;2023-03-14T06:09:27;4.60;99.90
23729;DHT22;12045;60.214;24.724;2023-03-14T06:11:54;4.80;99.90
23729;DHT22;12045;60.214;24.724;2023-03-14T06:14:23;4.70;99.90
23729;DHT22;12045;60.214;24.724;2023-03-14T06:17:22;4.60;99.90
23729;DHT22;12045;60.214;24.724;2023-03-14T06:19:50;5.10;99.90
23729;DHT22;12045;60.214;24.724;2023-03-14T06:22:42;4.70;99.90
23729;DHT22;12045;60.214;24.724;2023-03-14T06:25:15;4.80;99.90
23729;DHT22;12045;60.214;24.724;2023-03-14T06:30:25;4.80;99.90
23729;DHT22;12045;60.214;24.724;2023-03-14T06:32:53;4.70;99.90
23729;DHT22;12045;60.214;24.724;2023-03-14T06:35:22;5.00;99.90
23729;DHT22;12045;60.214;24.724;2023-03-14T06:37:52;5.50;99.90
23729;DHT22;12045;60.214;24.724;2023-03-14T06:40:19;4.80;99.90
23729;DHT22;12045;60.214;24.724;2023-03-14T06:42:48;5.20;99.90
23729;DHT22;12045;60.214;24.724;2023-03-14T06:45:16;4.80;99.90
23729;DHT22;12045;60.214;24.724;2023-03-14T06:47:45;4.70;99.90
23729;DHT22;12045;60.214;24.724;2023-03-14T06:50:18;4.70;99.90
23729;DHT22;12045;60.214;24.724;2023-03-14T06:52:46;4.70;99.90
23729;DHT22;12045;60.214;24.724;2023-03-14T06:55:18;4.70;99.90
23729;DHT22;12045;60.214;24.724;2023-03-14T06:57:50;5.40;99.90
23729;DHT22;12045;60.214;24.724;2023-03-14T07:00:18;5.00;99.90
23729;DHT22;12045;60.214;24.724;2023-03-14T07:02:46;4.80;99.90
23729;DHT22;12045;60.214;24.724;2023-03-14T07:05:14;4.10;99.90
23729;DHT22;12045;60.214;24.724;2023-03-14T07:07:41;4.80;99.90
23729;DHT22;12045;60.214;24.724;2023-03-14T07:10:11;4.70;99.90
23729;DHT22;12045;60.214;24.724;2023-03-14T07:12:39;4.70;99.90
23729;DHT22;12045;60.214;24.724;2023-03-14T07:15:13;4.70;99.90
23729;DHT22;12045;60.214;24.724;2023-03-14T07:17:47;4.70;99.90
23729;DHT22;12045;60.214;24.724;2023-03-14T07:20:28;4.70;99.90
23729;DHT22;12045;60.214;24.724;2023-03-14T07:23:02;4.80;99.90
23729;DHT22;12045;60.214;24.724;2023-03-14T07:25:38;4.80;99.90
23729;DHT22;12045;60.214;24.724;2023-03-14T07:28:17;4.80;99.90
23729;DHT22;12045;60.214;24.724;2023-03-14T07:31:00;4.80;99.90
23729;DHT22;12045;60.214;24.724;2023-03-14T07:33:55;4.70;99.90
23729;DHT22;12045;60.214;24.724;2023-03-14T07:36:40;4.80;99.90
23729;DHT22;12045;60.214;24.724;2023-03-14T07:39:23;4.80;99.90
23729;DHT22;12045;60.214;24.724;2023-03-14T07:41:55;4.80;99.90
23729;DHT22;12045;60.214;24.724;2023-03-14T07:44:27;5.50;99.90
23729;DHT22;12045;60.214;24.724;2023-03-14T07:47:20;4.80;99.90
23729;DHT22;12045;60.214;24.724;2023-03-14T07:50:06;5.50;99.90
23729;DHT22;12045;60.214;24.724;2023-03-14T07:52:39;4.70;99.90
23729;DHT22;12045;60.214;24.724;2023-03-14T07:55:27;4.60;99.90
23729;DHT22;12045;60.214;24.724;2023-03-14T07:57:57;4.60;99.90
23729;DHT22;12045;60.214;24.724;2023-03-14T08:00:51;4.60;99.90
23729;DHT22;12045;60.214;24.724;2023-03-14T08:03:51;4.60;99.90
23729;DHT22;12045;60.214;24.724;2023-03-14T08:06:36;4.60;99.90
23729;DHT22;12045;60.214;24.724;2023-03-14T08:09:15;4.60;99.90
23729;DHT22;12045;60.214;24.724;2023-03-14T08:12:14;4.60;99.90
23729;DHT22;12045;60.214;24.724;2023-03-14T08:15:06;4.60;99.90
23729;DHT22;12045;60.214;24.724;2023-03-14T08:18:08;4.60;99.90
23729;DHT22;12045;60.214;24.724;2023-03-14T08:20:38;4.90;99.90
23729;DHT22;12045;60.214;24.724;2023-03-14T08:23:08;4.60;99.90
23729;DHT22;12045;60.214;24.724;2023-03-14T08:25:39;5.40;99.90
23729;DHT22;12045;60.214;24.724;2023-03-14T08:31:36;4.60;99.90
23729;DHT22;12045;60.214;24.724;2023-03-14T08:34:44;5.10;99.90
23729;DHT22;12045;60.214;24.724;2023-03-14T08:37:19;4.70;99.90
23729;DHT22;12045;60.214;24.724;2023-03-14T08:39:53;4.60;99.90
23729;DHT22;12045;60.214;24.724;2023-03-14T08:45:37;5.30;99.90
23729;DHT22;12045;60.214;24.724;2023-03-14T08:57:10;4.60;99.90
23729;DHT22;12045;60.214;24.724;2023-03-14T08:59:39;5.50;99.90
23729;DHT22;12045;60.214;24.724;2023-03-14T09:02:10;5.00;99.90
23729;DHT22;12045;60.214;24.724;2023-03-14T09:05:22;4.80;99.90
23729;DHT22;12045;60.214;24.724;2023-03-14T09:07:53;4.70;99.90
23729;DHT22;12045;60.214;24.724;2023-03-14T09:10:22;4.60;99.90
23729;DHT22;12045;60.214;24.724;2023-03-14T09:12:50;5.30;99.90
23729;DHT22;12045;60.214;24.724;2023-03-14T09:15:21;5.10;99.90
23729;DHT22;12045;60.214;24.724;2023-03-14T09:23:21;4.60;99.90
23729;DHT22;12045;60.214;24.724;2023-03-14T09:25:53;4.90;99.90
23729;DHT22;12045;60.214;24.724;2023-03-14T09:39:19;4.60;99.90
23729;DHT22;12045;60.214;24.724;2023-03-14T09:41:51;4.70;99.90
23729;DHT22;12045;60.214;24.724;2023-03-14T09:44:28;5.00;99.90
23729;DHT22;12045;60.214;24.724;2023-03-14T09:47:02;4.80;99.90
23729;DHT22;12045;60.214;24.724;2023-03-14T09:49:46;5.00;99.90
23729;DHT22;12045;60.214;24.724;2023-03-14T09:55:32;4.50;99.90
23729;DHT22;12045;60.214;24.724;2023-03-14T10:00:41;4.60;99.90
23729;DHT22;12045;60.214;24.724;2023-03-14T10:05:46;4.70;99.90
23729;DHT22;12045;60.214;24.724;2023-03-14T10:08:14;4.50;99.90
23729;DHT22;12045;60.214;24.724;2023-03-14T10:10:41;4.60;99.90
23729;DHT22;12045;60.214;24.724;2023-03-14T10:13:21;5.50;99.90
23729;DHT22;12045;60.214;24.724;2023-03-14T10:16:02;4.60;99.90
23729;DHT22;12045;60.214;24.724;2023-03-14T10:18:31;4.60;99.90
23729;DHT22;12045;60.214;24.724;2023-03-14T10:23:32;4.60;99.90
23729;DHT22;12045;60.214;24.724;2023-03-14T10:26:08;4.60;99.90
23729;DHT22;12045;60.214;24.724;2023-03-14T10:35:25;4.40;99.90
23729;DHT22;12045;60.214;24.724;2023-03-14T10:38:00;4.70;99.90
23729;DHT22;12045;60.214;24.724;2023-03-14T10:48:55;1.90;99.90
23729;DHT22;12045;60.214;24.724;2023-03-14T10:55:32;5.30;99.90
23729;DHT22;12045;60.214;24.724;2023-03-14T10:59:14;4.10;99.90
23729;DHT22;12045;60.214;24.724;2023-03-14T11:08:30;4.60;99.90
23729;DHT22;12045;60.214;24.724;2023-03-14T11:14:28;4.60;99.90
23729;DHT22;12045;60.214;24.724;2023-03-14T11:23:14;4.50;99.90
23729;DHT22;12045;60.214;24.724;2023-03-14T11:28:58;4.60;99.90
23729;DHT22;12045;60.214;24.724;2023-03-14T11:31:35;5.10;99.90
23729;DHT22;12045;60.214;24.724;2023-03-14T11:37:33;4.80;99.90
23729;DHT22;12045;60.214;24.724;2023-03-14T11:40:21;5.80;99.90
23729;DHT22;12045;60.214;24.724;2023-03-14T11:52:56;4.80;99.90
23729;DHT22;12045;60.214;24.724;2023-03-14T12:01:02;4.80;99.90
23729;DHT22;12045;60.214;24.724;2023-03-14T12:06:50;4.80;99.90
23729;DHT22;12045;60.214;24.724;2023-03-14T12:09:29;5.30;99.90
23729;DHT22;12045;60.214;24.724;2023-03-14T12:54:25;4.70;99.90
23729;DHT22;12045;60.214;24.724;2023-03-14T13:04:04;4.80;99.90
23729;DHT22;12045;60.214;24.724;2023-03-14T13:06:53;4.50;99.90
23729;DHT22;12045;60.214;24.724;2023-03-14T13:12:11;4.80;99.90
23729;DHT22;12045;60.214;24.724;2023-03-14T13:14:49;4.80;99.90
23729;DHT22;12045;60.214;24.724;2023-03-14T13:17:26;5.50;99.90
23729;DHT22;12045;60.214;24.724;2023-03-14T13:20:17;4.50;99.90
23729;DHT22;12045;60.214;24.724;2023-03-14T13:22:47;4.50;99.90
23729;DHT22;12045;60.214;24.724;2023-03-14T13:25:16;5.50;99.90
23729;DHT22;12045;60.214;24.724;2023-03-14T13:27:48;4.90;99.90
23729;DHT22;12045;60.214;24.724;2023-03-14T13:30:28;5.40;99.90
23729;DHT22;12045;60.214;24.724;2023-03-14T13:32:56;4.50;99.90
23729;DHT22;12045;60.214;24.724;2023-03-14T13:35:27;4.40;99.90
23729;DHT22;12045;60.214;24.724;2023-03-14T13:37:58;4.50;99.90
23729;DHT22;12045;60.214;24.724;2023-03-14T13:40:38;4.70;99.90
23729;DHT22;12045;60.214;24.724;2023-03-14T13:43:13;4.50;99.90
23729;DHT22;12045;60.214;24.724;2023-03-14T13:45:45;4.80;99.90
23729;DHT22;12045;60.214;24.724;2023-03-14T13:48:13;5.10;99.90
23729;DHT22;12045;60.214;24.724;2023-03-14T13:51:06;4.50;99.90
23729;DHT22;12045;60.214;24.724;2023-03-14T13:53:50;4.40;99.90
23729;DHT22;12045;60.214;24.724;2023-03-14T13:56:19;4.30;99.90
23729;DHT22;12045;60.214;24.724;2023-03-14T13:58:48;4.40;99.90
23729;DHT22;12045;60.214;24.724;2023-03-14T14:01:30;4.50;99.90
23729;DHT22;12045;60.214;24.724;2023-03-14T14:04:07;4.50;99.90
23729;DHT22;12045;60.214;24.724;2023-03-14T14:06:37;5.20;99.90
23729;DHT22;12045;60.214;24.724;2023-03-14T14:09:14;5.00;99.90
23729;DHT22;12045;60.214;24.724;2023-03-14T14:15:07;4.50;99.90
23729;DHT22;12045;60.214;24.724;2023-03-14T14:17:52;4.40;99.90
23729;DHT22;12045;60.214;24.724;2023-03-14T14:23:13;4.50;99.90
23729;DHT22;12045;60.214;24.724;2023-03-14T14:25:43;5.40;99.90
23729;DHT22;12045;60.214;24.724;2023-03-14T14:31:20;4.50;99.90
23729;DHT22;12045;60.214;24.724;2023-03-14T14:33:56;5.20;99.90
23729;DHT22;12045;60.214;24.724;2023-03-14T14:36:47;4.60;99.90
23729;DHT22;12045;60.214;24.724;2023-03-14T14:39:20;4.60;99.90
23729;DHT22;12045;60.214;24.724;2023-03-14T14:41:54;4.60;99.90
23729;DHT22;12045;60.214;24.724;2023-03-14T14:44:30;7.30;99.90
23729;DHT22;12045;60.214;24.724;2023-03-14T14:47:01;5.00;99.90
23729;DHT22;12045;60.214;24.724;2023-03-14T14:49:31;5.40;99.90
23729;DHT22;12045;60.214;24.724;2023-03-14T14:54:57;4.90;99.90
23729;DHT22;12045;60.214;24.724;2023-03-14T14:57:27;5.10;99.90
23729;DHT22;12045;60.214;24.724;2023-03-14T15:00:03;5.70;99.90
23729;DHT22;12045;60.214;24.724;2023-03-14T15:02:45;4.90;99.90
23729;DHT22;12045;60.214;24.724;2023-03-14T15:05:18;5.70;99.90
23729;DHT22;12045;60.214;24.724;2023-03-14T15:07:47;5.00;99.90
23729;DHT22;12045;60.214;24.724;2023-03-14T15:17:05;4.90;99.90
23729;DHT22;12045;60.214;24.724;2023-03-14T15:25:06;5.10;99.90
23729;DHT22;12045;60.214;24.724;2023-03-14T16:12:33;5.00;99.90
23729;DHT22;12045;60.214;24.724;2023-03-14T16:15:03;5.10;99.90
23729;DHT22;12045;60.214;24.724;2023-03-14T16:17:46;5.00;99.90
23729;DHT22;12045;60.214;24.724;2023-03-14T16:37:45;5.00;99.90
23729;DHT22;12045;60.214;24.724;2023-03-14T16:40:19;5.00;99.90
23729;DHT22;12045;60.214;24.724;2023-03-14T17:11:54;5.20;99.90
23729;DHT22;12045;60.214;24.724;2023-03-14T17:17:25;5.20;99.90
23729;DHT22;12045;60.214;24.724;2023-03-14T17:29:20;5.30;99.90
23729;DHT22;12045;60.214;24.724;2023-03-14T17:31:47;5.40;99.90
23729;DHT22;12045;60.214;24.724;2023-03-14T17:34:15;5.40;99.90
23729;DHT22;12045;60.214;24.724;2023-03-14T17:49:20;5.40;99.90
23729;DHT22;12045;60.214;24.724;2023-03-14T17:51:48;5.40;99.90
23729;DHT22;12045;60.214;24.724;2023-03-14T17:57:26;5.40;99.90
23729;DHT22;12045;60.214;24.724;2023-03-14T18:06:22;5.40;99.90
23729;DHT22;12045;60.214;24.724;2023-03-14T18:08:49;5.60;99.90
23729;DHT22;12045;60.214;24.724;2023-03-14T18:11:17;5.30;99.90
23729;DHT22;12045;60.214;24.724;2023-03-14T18:13:44;5.70;99.90
23729;DHT22;12045;60.214;24.724;2023-03-14T18:19:23;5.30;99.90
23729;DHT22;12045;60.214;24.724;2023-03-14T18:57:18;5.40;99.90
23729;DHT22;12045;60.214;24.724;2023-03-14T19:08:46;5.60;99.90
23729;DHT22;12045;60.214;24.724;2023-03-14T19:17:41;5.70;99.90
23729;DHT22;12045;60.214;24.724;2023-03-14T19:29:04;6.20;99.90
23729;DHT22;12045;60.214;24.724;2023-03-14T20:29:57;4.90;99.90
23729;DHT22;12045;60.214;24.724;2023-03-14T20:45:04;4.80;99.90
23729;DHT22;12045;60.214;24.724;2023-03-14T20:56:12;4.90;99.90
23729;DHT22;12045;60.214;24.724;2023-03-14T21:01:44;4.90;99.90
23729;DHT22;12045;60.214;24.724;2023-03-14T21:07:59;4.90;99.90
23729;DHT22;12045;60.214;24.724;2023-03-14T21:14:00;4.90;99.90
23729;DHT22;12045;60.214;24.724;2023-03-14T21:19:26;4.90;99.90
23729;DHT22;12045;60.214;24.724;2023-03-14T21:24:41;4.90;99.90
23729;DHT22;12045;60.214;24.724;2023-03-14T21:29:57;5.00;99.90
23729;DHT22;12045;60.214;24.724;2023-03-14T21:32:50;5.40;99.90
23729;DHT22;12045;60.214;24.724;2023-03-14T21:38:03;5.10;99.90
23729;DHT22;12045;60.214;24.724;2023-03-14T21:40:30;5.60;99.90
23729;DHT22;12045;60.214;24.724;2023-03-14T21:42:58;5.50;99.90
23729;DHT22;12045;60.214;24.724;2023-03-14T21:45:26;5.20;99.90
23729;DHT22;12045;60.214;24.724;2023-03-14T21:50:40;5.30;99.90
23729;DHT22;12045;60.214;24.724;2023-03-14T21:53:08;5.70;99.90
23729;DHT22;12045;60.214;24.724;2023-03-14T21:55:51;5.30;99.90
23729;DHT22;12045;60.214;24.724;2023-03-14T22:01:07;5.40;99.90
23729;DHT22;12045;60.214;24.724;2023-03-14T22:03:37;5.40;99.90
23729;DHT22;12045;60.214;24.724;2023-03-14T22:06:05;5.50;99.90
23729;DHT22;12045;60.214;24.724;2023-03-14T22:13:37;5.40;99.90
23729;DHT22;12045;60.214;24.724;2023-03-14T22:16:06;5.40;99.90
23729;DHT22;12045;60.214;24.724;2023-03-14T22:19:07;5.30;99.90
23729;DHT22;12045;60.214;24.724;2023-03-14T22:21:35;5.40;99.90
23729;DHT22;12045;60.214;24.724;2023-03-14T22:24:18;5.30;99.90
23729;DHT22;12045;60.214;24.724;2023-03-14T22:26:45;5.30;99.90
23729;DHT22;12045;60.214;24.724;2023-03-14T22:29:22;5.20;99.90
23729;DHT22;12045;60.214;24.724;2023-03-14T22:34:39;5.30;99.90
23729;DHT22;12045;60.214;24.724;2023-03-14T22:37:14;5.60;99.90
23729;DHT22;12045;60.214;24.724;2023-03-14T22:42:57;5.20;99.90
23729;DHT22;12045;60.214;24.724;2023-03-14T22:48:04;5.10;99.90
23729;DHT22;12045;60.214;24.724;2023-03-14T22:53:20;5.00;99.90
23729;DHT22;12045;60.214;24.724;2023-03-14T22:58:37;4.90;99.90
23729;DHT22;12045;60.214;24.724;2023-03-14T23:10:10;4.60;99.90
23729;DHT22;12045;60.214;24.724;2023-03-14T23:12:37;4.50;99.90
23729;DHT22;12045;60.214;24.724;2023-03-14T23:15:05;5.30;99.90
23729;DHT22;12045;60.214;24.724;2023-03-14T23:17:34;4.50;99.90
23729;DHT22;12045;60.214;24.724;2023-03-14T23:23:19;4.50;99.90
23729;DHT22;12045;60.214;24.724;2023-03-14T23:29:14;4.40;99.90
23729;DHT22;12045;60.214;24.724;2023-03-14T23:35:05;4.30;99.90
23729;DHT22;12045;60.214;24.724;2023-03-14T23:44:09;4.20;99.90
23729;DHT22;12045;60.214;24.724;2023-03-14T23:49:29;4.20;99.90
23729;DHT22;12045;60.214;24.724;2023-03-14T23:51:56;4.80;99.90
